sensor_id;sensor_type;location;lat;lon;timestamp;pressure;altitude;pressure_sealevel;temperature;humidity
28079;BME280;15388;42.238;24.684;2022-10-14T00:00:10;99896.19;;;14.39;95.83
28079;BME280;15388;42.238;24.684;2022-10-14T00:02:35;99894.50;;;14.38;95.97
28079;BME280;15388;42.238;24.684;2022-10-14T00:05:00;99890.97;;;14.37;95.96
28079;BME280;15388;42.238;24.684;2022-10-14T00:07:26;99900.16;;;14.35;95.86
28079;BME280;15388;42.238;24.684;2022-10-14T00:09:51;99897.34;;;14.36;96.20
28079;BME280;15388;42.238;24.684;2022-10-14T00:12:16;99899.00;;;14.37;95.38
28079;BME280;15388;42.238;24.684;2022-10-14T00:14:41;99886.63;;;14.36;95.35
28079;BME280;15388;42.238;24.684;2022-10-14T00:17:07;99887.53;;;14.27;95.33
28079;BME280;15388;42.238;24.684;2022-10-14T00:19:32;99881.00;;;14.30;94.78
28079;BME280;15388;42.238;24.684;2022-10-14T00:21:57;99882.25;;;14.17;94.70
28079;BME280;15388;42.238;24.684;2022-10-14T00:24:22;99890.72;;;14.12;94.37
28079;BME280;15388;42.238;24.684;2022-10-14T00:26:48;99893.56;;;14.11;93.79
28079;BME280;15388;42.238;24.684;2022-10-14T00:29:14;99886.53;;;14.10;93.35
28079;BME280;15388;42.238;24.684;2022-10-14T00:31:39;99890.56;;;14.14;93.32
28079;BME280;15388;42.238;24.684;2022-10-14T00:34:05;99894.41;;;14.11;92.86
28079;BME280;15388;42.238;24.684;2022-10-14T00:36:30;99890.19;;;14.09;93.07
28079;BME280;15388;42.238;24.684;2022-10-14T00:38:56;99889.78;;;14.04;93.21
28079;BME280;15388;42.238;24.684;2022-10-14T00:46:14;99893.69;;;13.91;94.52
28079;BME280;15388;42.238;24.684;2022-10-14T00:48:39;99891.84;;;13.92;94.37
28079;BME280;15388;42.238;24.684;2022-10-14T00:51:05;99883.56;;;13.85;93.49
28079;BME280;15388;42.238;24.684;2022-10-14T00:53:30;99890.66;;;13.76;95.00
28079;BME280;15388;42.238;24.684;2022-10-14T00:55:56;99883.22;;;13.70;95.57
28079;BME280;15388;42.238;24.684;2022-10-14T00:58:21;99888.47;;;13.61;97.16
28079;BME280;15388;42.238;24.684;2022-10-14T01:00:46;99886.53;;;13.54;97.74
28079;BME280;15388;42.238;24.684;2022-10-14T01:03:19;99883.44;;;13.48;97.93
28079;BME280;15388;42.238;24.684;2022-10-14T01:08:44;99880.53;;;13.42;98.27
28079;BME280;15388;42.238;24.684;2022-10-14T01:14:07;99875.63;;;13.37;98.02
28079;BME280;15388;42.238;24.684;2022-10-14T01:29:56;99871.38;;;13.44;98.97
28079;BME280;15388;42.238;24.684;2022-10-14T01:32:27;99866.84;;;13.45;98.57
28079;BME280;15388;42.238;24.684;2022-10-14T01:35:10;99869.38;;;13.46;98.18
28079;BME280;15388;42.238;24.684;2022-10-14T01:37:38;99866.03;;;13.44;98.01
28079;BME280;15388;42.238;24.684;2022-10-14T01:40:10;99860.69;;;13.44;98.29
28079;BME280;15388;42.238;24.684;2022-10-14T01:42:38;99857.00;;;13.45;98.41
28079;BME280;15388;42.238;24.684;2022-10-14T01:45:14;99855.31;;;13.44;97.83
28079;BME280;15388;42.238;24.684;2022-10-14T01:47:41;99855.03;;;13.47;97.98
28079;BME280;15388;42.238;24.684;2022-10-14T01:50:12;99847.59;;;13.41;98.13
28079;BME280;15388;42.238;24.684;2022-10-14T01:52:40;99850.28;;;13.41;98.13
28079;BME280;15388;42.238;24.684;2022-10-14T01:55:10;99846.59;;;13.42;98.46
28079;BME280;15388;42.238;24.684;2022-10-14T01:57:38;99847.78;;;13.30;99.20
28079;BME280;15388;42.238;24.684;2022-10-14T02:00:05;99849.22;;;13.14;100.00
28079;BME280;15388;42.238;24.684;2022-10-14T02:02:34;99855.19;;;13.08;100.00
28079;BME280;15388;42.238;24.684;2022-10-14T02:04:59;99852.66;;;13.06;100.00
28079;BME280;15388;42.238;24.684;2022-10-14T02:07:27;99850.13;;;13.05;100.00
28079;BME280;15388;42.238;24.684;2022-10-14T02:15:08;99848.44;;;13.04;100.00
28079;BME280;15388;42.238;24.684;2022-10-14T02:22:39;99842.25;;;13.03;100.00
28079;BME280;15388;42.238;24.684;2022-10-14T02:25:17;99841.13;;;13.06;100.00
28079;BME280;15388;42.238;24.684;2022-10-14T02:27:43;99846.75;;;13.03;100.00
28079;BME280;15388;42.238;24.684;2022-10-14T02:30:10;99839.44;;;13.05;100.00
28079;BME280;15388;42.238;24.684;2022-10-14T02:32:36;99837.44;;;13.07;100.00
28079;BME280;15388;42.238;24.684;2022-10-14T02:35:03;99833.81;;;13.08;100.00
28079;BME280;15388;42.238;24.684;2022-10-14T02:37:28;99834.19;;;13.13;100.00
28079;BME280;15388;42.238;24.684;2022-10-14T02:40:06;99838.16;;;13.09;100.00
28079;BME280;15388;42.238;24.684;2022-10-14T02:42:33;99842.94;;;13.15;100.00
28079;BME280;15388;42.238;24.684;2022-10-14T02:44:59;99841.38;;;13.12;100.00
28079;BME280;15388;42.238;24.684;2022-10-14T02:47:25;99840.44;;;13.04;100.00
28079;BME280;15388;42.238;24.684;2022-10-14T02:49:50;99838.63;;;12.94;100.00
28079;BME280;15388;42.238;24.684;2022-10-14T02:52:16;99834.94;;;12.95;100.00
28079;BME280;15388;42.238;24.684;2022-10-14T02:54:41;99837.22;;;12.90;100.00
28079;BME280;15388;42.238;24.684;2022-10-14T02:57:07;99837.63;;;12.95;100.00
28079;BME280;15388;42.238;24.684;2022-10-14T02:59:32;99842.00;;;12.96;100.00
28079;BME280;15388;42.238;24.684;2022-10-14T03:01:57;99835.38;;;13.01;100.00
28079;BME280;15388;42.238;24.684;2022-10-14T03:04:22;99834.72;;;12.79;100.00
28079;BME280;15388;42.238;24.684;2022-10-14T03:06:48;99837.81;;;12.84;100.00
28079;BME280;15388;42.238;24.684;2022-10-14T03:09:13;99839.03;;;12.90;100.00
28079;BME280;15388;42.238;24.684;2022-10-14T03:11:38;99833.03;;;12.78;100.00
28079;BME280;15388;42.238;24.684;2022-10-14T03:14:04;99832.03;;;12.89;100.00
28079;BME280;15388;42.238;24.684;2022-10-14T03:16:29;99826.25;;;12.93;100.00
28079;BME280;15388;42.238;24.684;2022-10-14T03:18:54;99823.72;;;12.92;100.00
28079;BME280;15388;42.238;24.684;2022-10-14T03:21:19;99823.97;;;12.98;100.00
28079;BME280;15388;42.238;24.684;2022-10-14T03:23:44;99825.66;;;12.99;100.00
28079;BME280;15388;42.238;24.684;2022-10-14T03:26:10;99827.38;;;13.01;100.00
28079;BME280;15388;42.238;24.684;2022-10-14T03:28:35;99820.03;;;13.03;100.00
28079;BME280;15388;42.238;24.684;2022-10-14T03:31:00;99817.78;;;13.08;100.00
28079;BME280;15388;42.238;24.684;2022-10-14T03:33:26;99817.50;;;13.01;100.00
28079;BME280;15388;42.238;24.684;2022-10-14T03:35:51;99808.00;;;12.89;100.00
28079;BME280;15388;42.238;24.684;2022-10-14T03:38:16;99808.00;;;12.89;100.00
28079;BME280;15388;42.238;24.684;2022-10-14T03:40:42;99810.81;;;12.87;100.00
28079;BME280;15388;42.238;24.684;2022-10-14T03:43:07;99807.41;;;12.85;100.00
28079;BME280;15388;42.238;24.684;2022-10-14T03:45:32;99806.03;;;12.81;100.00
28079;BME280;15388;42.238;24.684;2022-10-14T03:47:57;99802.97;;;12.76;100.00
28079;BME280;15388;42.238;24.684;2022-10-14T03:50:23;99805.91;;;12.72;100.00
28079;BME280;15388;42.238;24.684;2022-10-14T03:52:48;99800.72;;;12.71;100.00
28079;BME280;15388;42.238;24.684;2022-10-14T03:55:13;99800.19;;;12.67;100.00
28079;BME280;15388;42.238;24.684;2022-10-14T03:57:39;99804.97;;;12.64;100.00
28079;BME280;15388;42.238;24.684;2022-10-14T04:00:04;99802.44;;;12.62;100.00
28079;BME280;15388;42.238;24.684;2022-10-14T04:02:29;99801.88;;;12.58;100.00
28079;BME280;15388;42.238;24.684;2022-10-14T04:04:55;99802.72;;;12.59;100.00
28079;BME280;15388;42.238;24.684;2022-10-14T04:07:20;99803.44;;;12.61;100.00
28079;BME280;15388;42.238;24.684;2022-10-14T04:09:45;99798.66;;;12.55;100.00
28079;BME280;15388;42.238;24.684;2022-10-14T04:12:11;99804.97;;;12.54;100.00
28079;BME280;15388;42.238;24.684;2022-10-14T04:14:37;99805.66;;;12.56;100.00
28079;BME280;15388;42.238;24.684;2022-10-14T04:17:02;99808.06;;;12.59;100.00
28079;BME280;15388;42.238;24.684;2022-10-14T04:19:27;99802.44;;;12.62;100.00
28079;BME280;15388;42.238;24.684;2022-10-14T04:21:52;99801.75;;;12.60;100.00
28079;BME280;15388;42.238;24.684;2022-10-14T04:24:18;99797.38;;;12.59;100.00
28079;BME280;15388;42.238;24.684;2022-10-14T04:26:43;99792.88;;;12.59;100.00
28079;BME280;15388;42.238;24.684;2022-10-14T04:29:08;99800.75;;;12.61;100.00
28079;BME280;15388;42.238;24.684;2022-10-14T04:31:33;99801.75;;;12.60;100.00
28079;BME280;15388;42.238;24.684;2022-10-14T04:33:59;99800.50;;;12.34;100.00
28079;BME280;15388;42.238;24.684;2022-10-14T04:36:24;99797.69;;;12.16;100.00
28079;BME280;15388;42.238;24.684;2022-10-14T04:38:49;99799.41;;;12.17;100.00
28079;BME280;15388;42.238;24.684;2022-10-14T04:41:14;99795.72;;;12.18;100.00
28079;BME280;15388;42.238;24.684;2022-10-14T04:43:40;99804.13;;;12.04;100.00
28079;BME280;15388;42.238;24.684;2022-10-14T04:46:05;99795.72;;;11.98;100.00
28079;BME280;15388;42.238;24.684;2022-10-14T04:48:30;99799.94;;;12.01;100.00
28079;BME280;15388;42.238;24.684;2022-10-14T04:50:56;99801.91;;;12.09;100.00
28079;BME280;15388;42.238;24.684;2022-10-14T04:53:21;99802.34;;;12.14;100.00
28079;BME280;15388;42.238;24.684;2022-10-14T04:55:47;99802.19;;;12.26;100.00
28079;BME280;15388;42.238;24.684;2022-10-14T04:58:13;99802.19;;;12.35;100.00
28079;BME280;15388;42.238;24.684;2022-10-14T05:00:39;99806.97;;;12.42;100.00
28079;BME280;15388;42.238;24.684;2022-10-14T05:03:04;99797.97;;;12.53;100.00
28079;BME280;15388;42.238;24.684;2022-10-14T05:05:29;99804.41;;;12.60;100.00
28079;BME280;15388;42.238;24.684;2022-10-14T05:07:55;99798.47;;;12.66;100.00
28079;BME280;15388;42.238;24.684;2022-10-14T05:10:20;99801.28;;;12.74;100.00
28079;BME280;15388;42.238;24.684;2022-10-14T05:12:46;99796.75;;;12.85;100.00
28079;BME280;15388;42.238;24.684;2022-10-14T05:15:11;99797.03;;;12.92;100.00
28079;BME280;15388;42.238;24.684;2022-10-14T05:17:37;99786.59;;;12.98;100.00
28079;BME280;15388;42.238;24.684;2022-10-14T05:20:03;99794.03;;;13.05;100.00
28079;BME280;15388;42.238;24.684;2022-10-14T05:22:29;99797.78;;;13.12;100.00
28079;BME280;15388;42.238;24.684;2022-10-14T05:24:54;99802.41;;;13.20;100.00
28079;BME280;15388;42.238;24.684;2022-10-14T05:27:19;99806.00;;;13.29;100.00
28079;BME280;15388;42.238;24.684;2022-10-14T05:29:45;99793.75;;;13.36;100.00
28079;BME280;15388;42.238;24.684;2022-10-14T05:32:10;99795.66;;;13.44;100.00
28079;BME280;15388;42.238;24.684;2022-10-14T05:34:36;99804.66;;;13.53;100.00
28079;BME280;15388;42.238;24.684;2022-10-14T05:37:01;99802.06;;;13.61;100.00
28079;BME280;15388;42.238;24.684;2022-10-14T05:39:27;99803.13;;;13.68;100.00
28079;BME280;15388;42.238;24.684;2022-10-14T05:41:52;99816.63;;;13.77;100.00
28079;BME280;15388;42.238;24.684;2022-10-14T05:44:18;99809.97;;;13.81;100.00
28079;BME280;15388;42.238;24.684;2022-10-14T05:46:43;99810.91;;;13.90;100.00
28079;BME280;15388;42.238;24.684;2022-10-14T05:49:09;99804.97;;;13.96;100.00
28079;BME280;15388;42.238;24.684;2022-10-14T05:51:35;99808.84;;;14.01;100.00
28079;BME280;15388;42.238;24.684;2022-10-14T05:54:00;99809.06;;;14.08;100.00
28079;BME280;15388;42.238;24.684;2022-10-14T05:56:26;99810.66;;;14.19;100.00
28079;BME280;15388;42.238;24.684;2022-10-14T05:58:51;99809.75;;;14.29;100.00
28079;BME280;15388;42.238;24.684;2022-10-14T06:01:16;99808.84;;;14.38;100.00
28079;BME280;15388;42.238;24.684;2022-10-14T06:03:42;99808.88;;;14.46;99.41
28079;BME280;15388;42.238;24.684;2022-10-14T06:06:11;99816.00;;;14.56;98.58
28079;BME280;15388;42.238;24.684;2022-10-14T06:08:37;99824.91;;;14.64;96.76
28079;BME280;15388;42.238;24.684;2022-10-14T06:11:02;99827.81;;;14.71;95.97
28079;BME280;15388;42.238;24.684;2022-10-14T06:13:28;99822.00;;;14.76;95.23
28079;BME280;15388;42.238;24.684;2022-10-14T06:15:54;99820.25;;;14.85;93.39
28079;BME280;15388;42.238;24.684;2022-10-14T06:18:19;99823.28;;;14.90;93.27
28079;BME280;15388;42.238;24.684;2022-10-14T06:20:50;99825.34;;;14.96;93.24
28079;BME280;15388;42.238;24.684;2022-10-14T06:23:15;99821.84;;;15.04;93.12
28079;BME280;15388;42.238;24.684;2022-10-14T06:25:40;99814.03;;;15.11;93.08
28079;BME280;15388;42.238;24.684;2022-10-14T06:28:06;99818.09;;;15.23;90.91
28079;BME280;15388;42.238;24.684;2022-10-14T06:30:31;99814.78;;;15.30;89.04
28079;BME280;15388;42.238;24.684;2022-10-14T06:32:57;99820.47;;;15.35;89.10
28079;BME280;15388;42.238;24.684;2022-10-14T06:35:22;99826.88;;;15.42;89.26
28079;BME280;15388;42.238;24.684;2022-10-14T06:37:48;99827.91;;;15.49;88.73
28079;BME280;15388;42.238;24.684;2022-10-14T06:40:13;99837.50;;;15.52;87.66
28079;BME280;15388;42.238;24.684;2022-10-14T06:42:38;99828.75;;;15.50;87.90
28079;BME280;15388;42.238;24.684;2022-10-14T06:45:04;99824.97;;;15.69;88.36
28079;BME280;15388;42.238;24.684;2022-10-14T06:47:30;99819.31;;;15.81;87.28
28079;BME280;15388;42.238;24.684;2022-10-14T06:49:56;99820.00;;;15.91;86.23
28079;BME280;15388;42.238;24.684;2022-10-14T06:52:21;99824.38;;;16.00;86.06
28079;BME280;15388;42.238;24.684;2022-10-14T06:54:46;99815.19;;;16.11;85.62
28079;BME280;15388;42.238;24.684;2022-10-14T06:57:12;99820.59;;;16.28;85.03
28079;BME280;15388;42.238;24.684;2022-10-14T06:59:37;99817.38;;;16.33;84.12
28079;BME280;15388;42.238;24.684;2022-10-14T07:02:03;99818.03;;;16.43;83.73
28079;BME280;15388;42.238;24.684;2022-10-14T07:04:29;99826.09;;;16.51;83.26
28079;BME280;15388;42.238;24.684;2022-10-14T07:06:54;99821.38;;;16.62;83.12
28079;BME280;15388;42.238;24.684;2022-10-14T07:09:21;99822.22;;;16.71;83.16
28079;BME280;15388;42.238;24.684;2022-10-14T07:11:47;99818.19;;;16.83;83.48
28079;BME280;15388;42.238;24.684;2022-10-14T07:14:12;99813.09;;;16.97;83.13
28079;BME280;15388;42.238;24.684;2022-10-14T07:16:37;99821.31;;;17.12;82.47
28079;BME280;15388;42.238;24.684;2022-10-14T07:19:03;99823.97;;;17.20;81.09
28079;BME280;15388;42.238;24.684;2022-10-14T07:21:28;99824.34;;;17.17;81.00
28079;BME280;15388;42.238;24.684;2022-10-14T07:23:53;99821.97;;;17.22;81.31
28079;BME280;15388;42.238;24.684;2022-10-14T07:26:19;99824.44;;;17.32;80.92
28079;BME280;15388;42.238;24.684;2022-10-14T07:28:45;99814.50;;;17.41;80.56
28079;BME280;15388;42.238;24.684;2022-10-14T07:31:10;99816.44;;;17.55;81.32
28079;BME280;15388;42.238;24.684;2022-10-14T07:33:37;99813.34;;;17.67;80.49
28079;BME280;15388;42.238;24.684;2022-10-14T07:36:04;99810.75;;;17.82;79.60
28079;BME280;15388;42.238;24.684;2022-10-14T07:38:30;99815.91;;;17.92;77.84
28079;BME280;15388;42.238;24.684;2022-10-14T07:40:59;99815.19;;;17.98;78.10
28079;BME280;15388;42.238;24.684;2022-10-14T07:43:24;99811.97;;;18.03;77.24
28079;BME280;15388;42.238;24.684;2022-10-14T07:45:50;99810.16;;;17.95;77.26
28079;BME280;15388;42.238;24.684;2022-10-14T07:48:15;99802.41;;;18.00;77.11
28079;BME280;15388;42.238;24.684;2022-10-14T07:50:41;99806.56;;;18.11;76.77
28079;BME280;15388;42.238;24.684;2022-10-14T07:53:06;99813.06;;;18.17;77.06
28079;BME280;15388;42.238;24.684;2022-10-14T07:55:31;99801.94;;;18.20;77.32
28079;BME280;15388;42.238;24.684;2022-10-14T07:57:57;99806.91;;;18.31;77.14
28079;BME280;15388;42.238;24.684;2022-10-14T08:00:22;99804.44;;;18.45;76.36
28079;BME280;15388;42.238;24.684;2022-10-14T08:02:48;99800.34;;;18.49;75.87
28079;BME280;15388;42.238;24.684;2022-10-14T08:05:13;99806.69;;;18.56;78.48
28079;BME280;15388;42.238;24.684;2022-10-14T08:07:38;99813.09;;;18.55;75.48
28079;BME280;15388;42.238;24.684;2022-10-14T08:10:04;99814.41;;;18.59;77.62
28079;BME280;15388;42.238;24.684;2022-10-14T08:12:30;99804.44;;;18.45;75.02
28079;BME280;15388;42.238;24.684;2022-10-14T08:14:56;99806.47;;;18.43;77.00
28079;BME280;15388;42.238;24.684;2022-10-14T08:17:22;99806.78;;;18.48;75.42
28079;BME280;15388;42.238;24.684;2022-10-14T08:19:48;99808.63;;;18.48;76.23
28079;BME280;15388;42.238;24.684;2022-10-14T08:22:13;99807.72;;;18.55;77.41
28079;BME280;15388;42.238;24.684;2022-10-14T08:24:39;99799.53;;;18.64;77.76
28079;BME280;15388;42.238;24.684;2022-10-14T08:27:04;99812.47;;;18.68;75.01
28079;BME280;15388;42.238;24.684;2022-10-14T08:29:31;99804.25;;;18.62;74.72
28079;BME280;15388;42.238;24.684;2022-10-14T08:31:57;99808.84;;;18.61;74.08
28079;BME280;15388;42.238;24.684;2022-10-14T08:34:23;99805.28;;;18.61;74.03
28079;BME280;15388;42.238;24.684;2022-10-14T08:36:48;99802.31;;;18.55;74.74
28079;BME280;15388;42.238;24.684;2022-10-14T08:39:18;99802.31;;;18.55;74.60
28079;BME280;15388;42.238;24.684;2022-10-14T08:44:41;99800.84;;;18.68;74.29
28079;BME280;15388;42.238;24.684;2022-10-14T08:47:10;99799.09;;;18.75;74.14
28079;BME280;15388;42.238;24.684;2022-10-14T08:49:48;99798.63;;;18.71;73.61
28079;BME280;15388;42.238;24.684;2022-10-14T08:52:26;99799.44;;;18.72;73.21
28079;BME280;15388;42.238;24.684;2022-10-14T08:54:59;99804.41;;;18.83;73.30
28079;BME280;15388;42.238;24.684;2022-10-14T08:57:28;99799.66;;;18.86;73.16
28079;BME280;15388;42.238;24.684;2022-10-14T08:59:55;99797.44;;;18.89;72.19
28079;BME280;15388;42.238;24.684;2022-10-14T09:05:04;99801.53;;;19.00;71.71
28079;BME280;15388;42.238;24.684;2022-10-14T09:07:30;99792.88;;;19.05;70.91
28079;BME280;15388;42.238;24.684;2022-10-14T09:10:05;99801.00;;;19.20;70.08
28079;BME280;15388;42.238;24.684;2022-10-14T09:12:32;99802.31;;;19.24;70.00
28079;BME280;15388;42.238;24.684;2022-10-14T09:17:30;99794.75;;;19.34;68.27
28079;BME280;15388;42.238;24.684;2022-10-14T09:20:03;99795.94;;;19.47;68.09
28079;BME280;15388;42.238;24.684;2022-10-14T09:22:29;99788.38;;;19.57;67.29
28079;BME280;15388;42.238;24.684;2022-10-14T09:24:54;99792.06;;;19.71;66.50
28079;BME280;15388;42.238;24.684;2022-10-14T09:27:21;99787.66;;;19.85;66.33
28079;BME280;15388;42.238;24.684;2022-10-14T09:32:35;99791.00;;;19.51;66.56
28079;BME280;15388;42.238;24.684;2022-10-14T09:34:58;99783.34;;;19.54;66.69
28079;BME280;15388;42.238;24.684;2022-10-14T09:37:27;99787.09;;;19.53;65.83
28079;BME280;15388;42.238;24.684;2022-10-14T09:45:20;99782.69;;;19.52;63.90
28079;BME280;15388;42.238;24.684;2022-10-14T09:50:19;99776.53;;;19.58;64.45
28079;BME280;15388;42.238;24.684;2022-10-14T09:52:48;99781.50;;;19.55;64.98
28079;BME280;15388;42.238;24.684;2022-10-14T09:55:17;99775.41;;;19.68;65.10
28079;BME280;15388;42.238;24.684;2022-10-14T09:57:44;99774.19;;;19.70;63.06
28079;BME280;15388;42.238;24.684;2022-10-14T10:00:22;99766.28;;;19.69;63.16
28079;BME280;15388;42.238;24.684;2022-10-14T10:02:48;99770.94;;;19.75;62.83
28079;BME280;15388;42.238;24.684;2022-10-14T10:07:44;99767.41;;;19.59;59.17
28079;BME280;15388;42.238;24.684;2022-10-14T10:10:25;99768.78;;;19.70;59.76
28079;BME280;15388;42.238;24.684;2022-10-14T10:12:51;99766.03;;;19.85;61.80
28079;BME280;15388;42.238;24.684;2022-10-14T10:15:17;99762.47;;;20.00;60.98
28079;BME280;15388;42.238;24.684;2022-10-14T10:17:43;99759.25;;;20.11;60.33
28079;BME280;15388;42.238;24.684;2022-10-14T10:22:41;99761.81;;;20.20;58.05
28079;BME280;15388;42.238;24.684;2022-10-14T10:32:40;99748.81;;;20.30;55.84
28079;BME280;15388;42.238;24.684;2022-10-14T10:35:18;99738.22;;;20.35;56.56
28079;BME280;15388;42.238;24.684;2022-10-14T10:40:34;99728.41;;;20.56;55.62
28079;BME280;15388;42.238;24.684;2022-10-14T10:45:37;99732.44;;;20.39;56.23
28079;BME280;15388;42.238;24.684;2022-10-14T10:53:13;99719.66;;;20.54;54.88
28079;BME280;15388;42.238;24.684;2022-10-14T10:55:55;99713.84;;;20.57;53.89
28079;BME280;15388;42.238;24.684;2022-10-14T11:01:26;99717.09;;;20.81;52.74
28079;BME280;15388;42.238;24.684;2022-10-14T11:04:00;99714.91;;;20.92;52.02
28079;BME280;15388;42.238;24.684;2022-10-14T11:06:36;99712.84;;;20.94;52.81
28079;BME280;15388;42.238;24.684;2022-10-14T11:09:27;99709.97;;;21.02;52.22
28079;BME280;15388;42.238;24.684;2022-10-14T11:15:17;99700.88;;;21.17;51.01
28079;BME280;15388;42.238;24.684;2022-10-14T11:25:34;99678.88;;;21.40;49.66
28079;BME280;15388;42.238;24.684;2022-10-14T11:38:14;99662.47;;;20.93;50.90
28079;BME280;15388;42.238;24.684;2022-10-14T11:43:47;99645.94;;;21.23;48.23
28079;BME280;15388;42.238;24.684;2022-10-14T11:46:06;99647.00;;;21.35;47.99
28079;BME280;15388;42.238;24.684;2022-10-14T11:48:34;99645.13;;;21.36;47.41
28079;BME280;15388;42.238;24.684;2022-10-14T11:51:19;99635.97;;;21.30;46.21
28079;BME280;15388;42.238;24.684;2022-10-14T12:01:49;99636.19;;;21.49;46.10
28079;BME280;15388;42.238;24.684;2022-10-14T12:04:21;99634.72;;;21.60;44.73
28079;BME280;15388;42.238;24.684;2022-10-14T12:06:56;99627.66;;;21.66;45.77
28079;BME280;15388;42.238;24.684;2022-10-14T12:11:56;99617.50;;;21.81;44.61
28079;BME280;15388;42.238;24.684;2022-10-14T12:16:49;99618.06;;;21.70;45.71
28079;BME280;15388;42.238;24.684;2022-10-14T12:19:24;99617.72;;;21.80;45.34
28079;BME280;15388;42.238;24.684;2022-10-14T12:21:52;99614.34;;;21.91;44.79
28079;BME280;15388;42.238;24.684;2022-10-14T12:24:22;99609.34;;;21.95;44.67
28079;BME280;15388;42.238;24.684;2022-10-14T12:26:53;99616.03;;;21.99;44.62
28079;BME280;15388;42.238;24.684;2022-10-14T12:29:41;99614.75;;;22.08;44.37
28079;BME280;15388;42.238;24.684;2022-10-14T12:32:24;99603.91;;;21.95;44.02
28079;BME280;15388;42.238;24.684;2022-10-14T12:34:51;99614.75;;;22.01;44.36
28079;BME280;15388;42.238;24.684;2022-10-14T12:40:38;99613.31;;;21.99;43.02
28079;BME280;15388;42.238;24.684;2022-10-14T12:45:12;99605.19;;;21.99;42.56
28079;BME280;15388;42.238;24.684;2022-10-14T12:47:38;99605.19;;;21.99;41.93
28079;BME280;15388;42.238;24.684;2022-10-14T12:52:38;99606.44;;;21.89;43.14
28079;BME280;15388;42.238;24.684;2022-10-14T12:55:08;99595.41;;;21.91;42.77
28079;BME280;15388;42.238;24.684;2022-10-14T12:57:38;99595.84;;;21.81;42.97
28079;BME280;15388;42.238;24.684;2022-10-14T13:00:06;99591.03;;;21.83;42.22
28079;BME280;15388;42.238;24.684;2022-10-14T13:02:53;99589.75;;;21.72;42.29
28079;BME280;15388;42.238;24.684;2022-10-14T13:05:36;99592.88;;;21.62;42.44
28079;BME280;15388;42.238;24.684;2022-10-14T13:11:22;99588.06;;;21.51;42.71
28079;BME280;15388;42.238;24.684;2022-10-14T13:16:10;99580.78;;;21.18;42.45
28079;BME280;15388;42.238;24.684;2022-10-14T13:18:55;99583.88;;;21.15;43.03
28079;BME280;15388;42.238;24.684;2022-10-14T13:24:05;99587.00;;;20.98;43.94
28079;BME280;15388;42.238;24.684;2022-10-14T13:31:31;99589.47;;;20.51;46.08
28079;BME280;15388;42.238;24.684;2022-10-14T13:34:15;99585.94;;;20.08;47.53
28079;BME280;15388;42.238;24.684;2022-10-14T13:36:52;99583.06;;;19.59;48.69
28079;BME280;15388;42.238;24.684;2022-10-14T13:39:20;99582.00;;;19.31;48.91
28079;BME280;15388;42.238;24.684;2022-10-14T13:41:46;99577.22;;;19.12;49.76
28079;BME280;15388;42.238;24.684;2022-10-14T13:44:12;99584.91;;;18.93;50.76
28079;BME280;15388;42.238;24.684;2022-10-14T13:46:41;99576.81;;;18.93;50.71
28079;BME280;15388;42.238;24.684;2022-10-14T13:49:11;99580.78;;;18.97;51.59
28079;BME280;15388;42.238;24.684;2022-10-14T13:51:42;99577.09;;;18.98;51.05
28079;BME280;15388;42.238;24.684;2022-10-14T13:56:37;99578.28;;;18.95;50.79
28079;BME280;15388;42.238;24.684;2022-10-14T13:59:15;99573.47;;;18.91;51.14
28079;BME280;15388;42.238;24.684;2022-10-14T14:01:41;99565.50;;;19.04;51.13
28079;BME280;15388;42.238;24.684;2022-10-14T14:04:20;99576.44;;;18.96;50.53
28079;BME280;15388;42.238;24.684;2022-10-14T14:06:47;99571.41;;;18.93;51.10
28079;BME280;15388;42.238;24.684;2022-10-14T14:09:17;99569.06;;;18.68;52.05
28079;BME280;15388;42.238;24.684;2022-10-14T14:11:45;99569.63;;;18.63;52.58
28079;BME280;15388;42.238;24.684;2022-10-14T14:14:18;99569.56;;;18.56;52.18
28079;BME280;15388;42.238;24.684;2022-10-14T14:16:51;99572.00;;;18.51;52.57
28079;BME280;15388;42.238;24.684;2022-10-14T14:19:18;99567.34;;;18.45;52.57
28079;BME280;15388;42.238;24.684;2022-10-14T14:21:43;99571.53;;;18.32;52.64
28079;BME280;15388;42.238;24.684;2022-10-14T14:24:30;99577.69;;;18.26;53.27
28079;BME280;15388;42.238;24.684;2022-10-14T14:26:54;99573.75;;;18.29;53.09
28079;BME280;15388;42.238;24.684;2022-10-14T14:29:21;99577.50;;;18.28;53.01
28079;BME280;15388;42.238;24.684;2022-10-14T14:31:49;99572.75;;;18.15;53.62
28079;BME280;15388;42.238;24.684;2022-10-14T14:34:16;99576.34;;;18.07;53.29
28079;BME280;15388;42.238;24.684;2022-10-14T14:36:42;99579.59;;;18.02;53.67
28079;BME280;15388;42.238;24.684;2022-10-14T14:39:21;99576.16;;;18.08;53.17
28079;BME280;15388;42.238;24.684;2022-10-14T14:41:50;99570.47;;;18.03;53.20
28079;BME280;15388;42.238;24.684;2022-10-14T14:44:17;99582.00;;;17.97;54.52
28079;BME280;15388;42.238;24.684;2022-10-14T14:46:43;99577.72;;;18.03;54.64
28079;BME280;15388;42.238;24.684;2022-10-14T14:49:14;99582.56;;;18.07;54.42
28079;BME280;15388;42.238;24.684;2022-10-14T14:51:40;99590.94;;;18.13;54.71
28079;BME280;15388;42.238;24.684;2022-10-14T14:54:06;99581.78;;;18.22;54.44
28079;BME280;15388;42.238;24.684;2022-10-14T14:56:33;99581.66;;;18.30;54.97
28079;BME280;15388;42.238;24.684;2022-10-14T14:59:25;99585.47;;;18.36;53.86
28079;BME280;15388;42.238;24.684;2022-10-14T15:01:47;99582.78;;;18.51;54.80
28079;BME280;15388;42.238;24.684;2022-10-14T15:04:20;99583.28;;;18.62;55.07
28079;BME280;15388;42.238;24.684;2022-10-14T15:06:49;99578.63;;;18.70;54.09
28079;BME280;15388;42.238;24.684;2022-10-14T15:09:16;99585.91;;;18.70;53.98